Time;durP1;ratioP1;P1;durP2;ratioP2;P2;SDS_P1;SDS_P2;PMS_P1;PMS_P2;Temp;Humidity;BMP_temperature;BMP_pressure;BME280_temperature;BME280_humidity;BME280_pressure;Samples;Min_cycle;Max_cycle;Signal;HPM_P1;HPM_P2
2022/06/23 08:30:10;;;;;;;11.48;7.35;;;;;;;;;;6177218;23;20080;-82
2022/06/23 08:32:38;;;;;;;12.77;7.55;;;;;;;;;;6174747;23;20099;-82
2022/06/23 08:35:12;;;;;;;11.93;6.93;;;;;;;;;;6184420;23;20009;-82
2022/06/23 09:21:52;;;;;;;16.35;7.95;;;;;;;;;;6204824;23;20029;-80
2022/06/23 09:24:23;;;;;;;14.98;7.53;;;;;;;;;;6215397;23;20398;-81
2022/06/23 09:26:56;;;;;;;11.68;7.55;;;;;;;;;;6218627;23;20412;-83
2022/06/23 09:29:41;;;;;;;11.55;7.47;;;;;;;;;;6219284;23;20087;-92
2022/06/23 09:32:15;;;;;;;14.60;7.97;;;;;;;;;;6218986;23;20030;-87
2022/06/23 09:35:05;;;;;;;11.40;7.53;;;;;;;;;;6218959;23;20004;-90
2022/06/23 09:37:46;;;;;;;12.15;7.30;;;;;;;;;;6217921;23;20004;-77
2022/06/23 09:40:29;;;;;;;9.77;8.32;;;;;;;;;;6217620;23;20004;-78
2022/06/23 09:43:13;;;;;;;13.93;8.60;;;;;;;;;;6217659;23;20005;-77
2022/06/23 09:46:06;;;;;;;13.15;8.75;;;;;;;;;;6217451;23;20009;-78
2022/06/23 09:48:37;;;;;;;12.63;8.77;;;;;;;;;;6217541;23;20004;-78
2022/06/23 09:51:40;;;;;;;11.75;7.75;;;;;;;;;;6217660;23;20012;-78
2022/06/23 09:54:30;;;;;;;12.93;8.38;;;;;;;;;;6217496;23;20412;-78
2022/06/23 09:56:58;;;;;;;15.48;8.55;;;;;;;;;;6217441;23;20001;-78
2022/06/23 09:59:56;;;;;;;16.23;8.97;;;;;;;;;;6217375;23;20004;-78
2022/06/23 10:03:12;;;;;;;13.13;8.07;;;;;;;;;;6217193;23;20228;-80
2022/06/23 10:06:03;;;;;;;15.88;9.88;;;;;;;;;;6096406;23;20017;-79
2022/06/23 10:09:05;;;;;;;15.30;9.10;;;;;;;;;;6212273;23;20067;-80
2022/06/23 10:11:42;;;;;;;12.65;9.60;;;;;;;;;;6190798;23;20087;-85
2022/06/23 10:14:23;;;;;;;10.73;8.82;;;;;;;;;;6191125;23;20014;-79
2022/06/23 10:17:36;;;;;;;13.82;9.10;;;;;;;;;;6217260;23;20004;-80
2022/06/23 10:20:34;;;;;;;14.45;8.85;;;;;;;;;;6096232;23;20014;-77
2022/06/23 10:23:39;;;;;;;12.70;8.82;;;;;;;;;;6217066;23;20017;-79
2022/06/23 10:26:04;;;;;;;14.85;8.15;;;;;;;;;;6217481;23;20032;-86
2022/06/23 10:28:41;;;;;;;12.07;9.70;;;;;;;;;;6217469;23;20439;-84
2022/06/23 10:31:38;;;;;;;16.13;9.10;;;;;;;;;;6217347;23;20030;-79
2022/06/23 10:34:26;;;;;;;14.93;9.73;;;;;;;;;;6216793;23;20013;-81
2022/06/23 10:37:16;;;;;;;12.43;7.60;;;;;;;;;;6190185;23;20004;-81
2022/06/23 10:39:56;;;;;;;12.35;8.00;;;;;;;;;;6217076;23;20070;-81
2022/06/23 10:42:50;;;;;;;11.90;7.63;;;;;;;;;;6216976;23;20005;-81
2022/06/23 10:45:25;;;;;;;13.88;8.55;;;;;;;;;;6190486;23;20031;-81
2022/06/23 10:48:28;;;;;;;13.10;7.82;;;;;;;;;;6216948;23;20059;-81
2022/06/23 10:51:14;;;;;;;17.30;7.82;;;;;;;;;;6217339;23;20001;-82
2022/06/23 10:53:58;;;;;;;13.13;8.48;;;;;;;;;;6216996;23;20032;-80
2022/06/23 10:56:43;;;;;;;15.85;9.18;;;;;;;;;;6216921;23;20054;-80
2022/06/23 10:59:26;;;;;;;12.82;8.27;;;;;;;;;;6190143;23;20012;-79
2022/06/23 11:02:17;;;;;;;10.13;7.93;;;;;;;;;;6216721;23;20005;-84
2022/06/23 11:04:53;;;;;;;12.38;8.80;;;;;;;;;;6216858;23;20009;-83
2022/06/23 11:07:37;;;;;;;10.75;7.28;;;;;;;;;;6216711;23;19997;-83
2022/06/23 11:10:44;;;;;;;14.02;8.23;;;;;;;;;;6216717;23;20439;-83
2022/06/23 11:13:28;;;;;;;15.27;7.93;;;;;;;;;;6150682;23;20011;-82
2022/06/23 11:16:03;;;;;;;16.83;8.35;;;;;;;;;;6217108;23;20371;-81
2022/06/23 11:18:41;;;;;;;13.60;7.80;;;;;;;;;;6216823;23;20007;-82
2022/06/23 11:21:27;;;;;;;15.77;8.02;;;;;;;;;;6216677;23;20084;-79
2022/06/23 11:24:00;;;;;;;11.75;7.97;;;;;;;;;;6216524;23;20011;-82
2022/06/23 11:26:49;;;;;;;12.20;7.78;;;;;;;;;;6216661;23;20008;-79
2022/06/23 11:29:39;;;;;;;13.05;8.02;;;;;;;;;;6216529;23;20000;-79
2022/06/23 11:32:11;;;;;;;15.13;8.55;;;;;;;;;;6216562;23;20042;-84
2022/06/23 11:34:54;;;;;;;12.80;8.02;;;;;;;;;;6216610;23;20012;-80
2022/06/23 11:37:56;;;;;;;15.35;8.70;;;;;;;;;;6189867;23;20069;-81
2022/06/23 11:40:45;;;;;;;16.00;9.07;;;;;;;;;;6216493;23;20331;-79
2022/06/23 11:43:22;;;;;;;13.80;8.98;;;;;;;;;;6216356;23;20004;-81
2022/06/23 11:45:51;;;;;;;15.40;8.38;;;;;;;;;;6216303;23;20028;-80
2022/06/23 16:11:19;;;;;;;30.83;9.88;;;;;;;;;;6194382;23;20278;-85
2022/06/23 16:14:08;;;;;;;27.80;10.05;;;;;;;;;;6160982;23;20021;-83
2022/06/23 16:16:41;;;;;;;24.67;9.25;;;;;;;;;;6184634;23;20079;-83
2022/06/23 16:19:31;;;;;;;17.77;8.55;;;;;;;;;;6187229;23;20005;-96
2022/06/23 16:22:11;;;;;;;25.40;9.27;;;;;;;;;;6187098;23;20431;-85
2022/06/23 16:24:42;;;;;;;19.63;8.48;;;;;;;;;;6185590;23;20088;-86
2022/06/23 16:27:16;;;;;;;24.60;9.95;;;;;;;;;;6185975;23;20481;-86
2022/06/23 16:29:52;;;;;;;27.63;9.98;;;;;;;;;;6186048;23;20005;-81
2022/06/23 16:32:29;;;;;;;25.38;9.45;;;;;;;;;;6187320;23;20297;-84
2022/06/23 16:35:10;;;;;;;22.70;9.57;;;;;;;;;;6186248;23;20060;-85
2022/06/23 16:37:47;;;;;;;23.27;9.57;;;;;;;;;;6160429;23;20005;-91
2022/06/23 16:40:26;;;;;;;30.15;10.45;;;;;;;;;;6186513;23;20009;-87
2022/06/23 16:42:57;;;;;;;30.25;10.75;;;;;;;;;;6186102;23;20424;-83
2022/06/23 16:45:31;;;;;;;29.70;10.00;;;;;;;;;;6186717;23;20088;-83
2022/06/23 16:48:09;;;;;;;27.17;9.93;;;;;;;;;;6186573;23;20036;-83
2022/06/23 16:50:34;;;;;;;26.55;10.20;;;;;;;;;;6186609;23;20405;-85
2022/06/23 16:53:17;;;;;;;33.25;9.98;;;;;;;;;;6187185;23;20012;-84
2022/06/23 16:56:14;;;;;;;23.52;9.30;;;;;;;;;;6186566;23;20012;-88
2022/06/23 16:58:56;;;;;;;28.35;9.90;;;;;;;;;;6186279;23;20005;-85
2022/06/23 17:01:40;;;;;;;25.35;9.95;;;;;;;;;;6185953;23;20004;-84
2022/06/23 17:04:24;;;;;;;24.02;9.75;;;;;;;;;;6186074;23;20005;-86
2022/06/23 17:07:22;;;;;;;28.20;10.77;;;;;;;;;;6186838;23;20056;-83
2022/06/23 17:10:13;;;;;;;27.48;9.90;;;;;;;;;;6186159;23;20317;-82
2022/06/23 17:12:50;;;;;;;22.83;9.68;;;;;;;;;;6202448;23;20012;-89
2022/06/23 17:15:29;;;;;;;32.10;10.07;;;;;;;;;;6215731;23;20384;-82
2022/06/23 17:18:11;;;;;;;26.38;9.90;;;;;;;;;;6215708;23;20072;-83
2022/06/23 17:20:40;;;;;;;21.23;9.38;;;;;;;;;;6216527;23;20005;-86
2022/06/23 17:23:15;;;;;;;25.70;10.18;;;;;;;;;;6215893;23;20035;-82
2022/06/23 17:26:08;;;;;;;31.58;10.20;;;;;;;;;;6189859;23;20035;-80
2022/06/23 17:28:50;;;;;;;21.00;9.05;;;;;;;;;;6210168;23;20017;-80
2022/06/23 17:31:15;;;;;;;19.25;8.90;;;;;;;;;;6215335;23;20074;-80
2022/06/23 17:33:47;;;;;;;29.25;10.02;;;;;;;;;;6215492;23;20408;-80
2022/06/23 17:36:19;;;;;;;27.20;9.07;;;;;;;;;;6215868;23;20005;-80
2022/06/23 17:44:41;;;;;;;29.48;11.02;;;;;;;;;;6216073;23;20023;-80
2022/06/23 17:47:27;;;;;;;25.27;9.35;;;;;;;;;;6217434;23;20126;-81
2022/06/23 17:49:54;;;;;;;22.73;9.25;;;;;;;;;;6217629;23;20034;-84
2022/06/23 17:52:41;;;;;;;22.70;10.02;;;;;;;;;;6217415;23;20418;-78
2022/06/23 17:55:35;;;;;;;27.50;9.75;;;;;;;;;;6217188;23;20001;-81
2022/06/23 17:58:08;;;;;;;23.55;9.70;;;;;;;;;;6217524;23;19997;-83
2022/06/23 18:00:43;;;;;;;26.95;9.88;;;;;;;;;;6217535;23;20079;-88
2022/06/23 18:03:24;;;;;;;28.88;10.45;;;;;;;;;;6217391;23;20000;-87
2022/06/23 18:05:53;;;;;;;19.90;9.52;;;;;;;;;;6217424;23;20001;-87
2022/06/23 18:08:22;;;;;;;26.02;9.90;;;;;;;;;;6217576;23;20391;-85
2022/06/23 18:10:54;;;;;;;24.57;9.33;;;;;;;;;;6217917;23;20004;-88
2022/06/23 18:13:32;;;;;;;25.80;9.82;;;;;;;;;;6217333;23;20238;-87
2022/06/23 18:16:19;;;;;;;18.67;8.77;;;;;;;;;;6217447;23;20035;-88
2022/06/23 18:18:50;;;;;;;20.48;9.45;;;;;;;;;;6217186;23;20011;-86
2022/06/23 18:21:19;;;;;;;21.33;9.15;;;;;;;;;;6217353;23;20094;-82
2022/06/23 18:23:55;;;;;;;;;;;;;;;;;;6218146;23;20004;-87
2022/06/23 18:26:40;;;;;;;20.63;8.90;;;;;;;;;;6217002;23;19930;-81
2022/06/23 18:29:06;;;;;;;20.00;9.20;;;;;;;;;;6217207;23;20034;-88
2022/06/23 18:31:57;;;;;;;22.92;10.15;;;;;;;;;;6217941;23;20001;-83
2022/06/23 20:38:22;;;;;;;16.27;8.23;;;;;;;;;;6188169;23;20013;-88
2022/06/23 20:41:08;;;;;;;20.20;7.50;;;;;;;;;;6214510;23;20020;-84
2022/06/23 20:43:59;;;;;;;18.20;7.63;;;;;;;;;;6215909;23;20024;-87
2022/06/23 20:47:03;;;;;;;20.10;7.47;;;;;;;;;;6216021;23;20490;-84
2022/06/23 20:49:40;;;;;;;15.75;7.30;;;;;;;;;;6216087;23;20054;-83
2022/06/23 20:52:19;;;;;;;19.90;7.70;;;;;;;;;;6216196;23;20005;-84
2022/06/23 20:54:59;;;;;;;16.95;7.60;;;;;;;;;;6189316;23;20004;-84
2022/06/23 20:57:49;;;;;;;28.23;9.82;;;;;;;;;;6216190;23;20004;-86
2022/06/23 21:00:21;;;;;;;18.10;7.03;;;;;;;;;;6216024;23;20416;-83
2022/06/23 21:03:08;;;;;;;16.17;7.55;;;;;;;;;;6189255;23;20007;-85
2022/06/23 21:05:54;;;;;;;13.75;7.38;;;;;;;;;;6216440;23;20047;-88
2022/06/23 21:08:53;;;;;;;18.80;8.10;;;;;;;;;;6215942;23;20422;-84
2022/06/23 21:11:38;;;;;;;;;;;;;;;;;;6215624;23;20016;-86
2022/06/23 21:14:26;;;;;;;15.13;6.80;;;;;;;;;;6216084;23;19908;-82
2022/06/23 21:17:03;;;;;;;20.73;7.88;;;;;;;;;;6216021;23;20008;-79
2022/06/23 21:19:41;;;;;;;16.42;7.72;;;;;;;;;;6217079;23;20009;-82
2022/06/23 21:22:20;;;;;;;21.33;8.23;;;;;;;;;;6219050;23;20000;-86
2022/06/23 21:25:07;;;;;;;20.60;7.53;;;;;;;;;;6191182;23;20009;-86
2022/06/23 21:27:48;;;;;;;20.30;8.25;;;;;;;;;;6217736;23;20008;-87
2022/06/23 21:30:30;;;;;;;20.02;8.25;;;;;;;;;;6217980;23;20000;-87
2022/06/23 21:33:04;;;;;;;17.65;7.10;;;;;;;;;;6217964;23;20008;-86
2022/06/23 21:35:38;;;;;;;14.18;7.82;;;;;;;;;;6218038;23;20450;-87
2022/06/23 21:38:10;;;;;;;16.17;7.15;;;;;;;;;;6190922;23;20016;-87
2022/06/23 21:40:48;;;;;;;20.40;7.72;;;;;;;;;;6217687;23;20083;-86
2022/06/23 21:43:16;;;;;;;19.67;8.63;;;;;;;;;;6217567;23;20075;-87
2022/06/23 21:45:44;;;;;;;19.70;8.17;;;;;;;;;;6217691;23;20000;-87
2022/06/23 21:48:26;;;;;;;24.67;9.50;;;;;;;;;;6217534;23;20009;-87
2022/06/23 21:51:17;;;;;;;18.85;8.85;;;;;;;;;;6190814;23;20334;-87
2022/06/23 21:54:09;;;;;;;19.77;8.80;;;;;;;;;;6190854;23;20009;-87
2022/06/23 21:57:07;;;;;;;18.30;8.35;;;;;;;;;;6190842;23;20011;-87
2022/06/23 21:59:32;;;;;;;17.27;7.78;;;;;;;;;;6217501;23;20001;-84
2022/06/23 22:02:04;;;;;;;22.23;9.55;;;;;;;;;;6217555;23;20012;-85
2022/06/23 22:04:32;;;;;;;24.00;9.10;;;;;;;;;;6217490;23;20009;-86
